Time;durP1;ratioP1;P1;durP2;ratioP2;P2;SDS_P1;SDS_P2;PMS_P1;PMS_P2;Temp;Humidity;BMP_temperature;BMP_pressure;BME280_temperature;BME280_humidity;BME280_pressure;Samples;Min_cycle;Max_cycle;Signal;HPM_P1;HPM_P2
2022/09/12 00:00:49;;;;;;;;;;;;;;;21.83;51.08;95871.09;10243082;28;2805;-41
2022/09/12 00:05:51;;;;;;;;;;;;;;;21.83;51.53;95862.38;10243798;28;2721;-41
2022/09/12 00:10:51;;;;;;;;;;;;;;;21.82;51.59;95864.22;10243445;28;2831;-41
2022/09/12 00:15:53;;;;;;;;;;;;;;;21.84;51.21;95866.63;10239828;28;3269;-44
2022/09/12 00:20:53;;;;;;;;;;;;;;;21.83;51.21;95865.03;10242106;28;3259;-41
2022/09/12 00:25:54;;;;;;;;;;;;;;;21.82;51.46;95850.28;10244530;28;2845;-41
2022/09/12 00:30:54;;;;;;;;;;;;;;;21.81;51.27;95854.75;10247107;28;2871;-44
2022/09/12 00:35:54;;;;;;;;;;;;;;;21.81;51.50;95844.22;10243138;28;2899;-42
2022/09/12 00:40:54;;;;;;;;;;;;;;;21.81;51.56;95843.38;10245684;28;3462;-41
2022/09/12 00:45:59;;;;;;;;;;;;;;;21.79;51.07;95846.31;10248446;28;2749;-42
2022/09/12 00:50:59;;;;;;;;;;;;;;;21.80;51.48;95836.53;10250382;28;2750;-42
2022/09/12 00:55:59;;;;;;;;;;;;;;;21.80;51.48;95837.31;10264480;28;2833;-41
2022/09/12 01:00:59;;;;;;;;;;;;;;;21.79;51.19;95830.47;10248750;28;2754;-41
2022/09/12 01:06:03;;;;;;;;;;;;;;;21.79;51.24;95825.19;10253227;28;3293;-44
2022/09/12 01:11:04;;;;;;;;;;;;;;;21.78;51.14;95817.56;10251419;28;3321;-41
2022/09/12 01:16:04;;;;;;;;;;;;;;;21.78;51.41;95818.34;10248264;28;2898;-42
2022/09/12 01:21:10;;;;;;;;;;;;;;;21.79;51.24;95819.13;10258505;28;2871;-41
2022/09/12 01:26:16;;;;;;;;;;;;;;;21.77;51.28;95810.69;10248110;28;2757;-41
2022/09/12 01:31:21;;;;;;;;;;;;;;;21.77;51.34;95805.44;10246222;28;3326;-41
2022/09/12 01:36:23;;;;;;;;;;;;;;;21.76;51.35;95806.50;10245841;28;3262;-41
2022/09/12 01:41:26;;;;;;;;;;;;;;;21.77;51.19;95797.50;10247110;28;2884;-41
2022/09/12 01:46:26;;;;;;;;;;;;;;;21.76;51.05;95794.06;10266953;28;3461;-41
2022/09/12 01:51:32;;;;;;;;;;;;;;;21.76;51.16;95795.94;10249869;28;2705;-42
2022/09/12 01:56:34;;;;;;;;;;;;;;;21.74;51.14;95784.88;10247515;28;3364;-42
2022/09/12 02:01:35;;;;;;;;;;;;;;;21.75;51.15;95783.81;10263144;28;2677;-41
2022/09/12 02:06:37;;;;;;;;;;;;;;;21.75;51.02;95783.81;10264851;28;2702;-41
2022/09/12 02:11:37;;;;;;;;;;;;;;;21.74;51.15;95776.97;10263822;28;3349;-48
2022/09/12 02:16:45;;;;;;;;;;;;;;;21.73;51.07;95770.13;10259577;28;3282;-49
2022/09/12 02:21:55;;;;;;;;;;;;;;;21.72;51.12;95760.63;10264139;28;2789;-48
2022/09/12 02:26:56;;;;;;;;;;;;;;;21.71;50.95;95759.06;10254298;28;2888;-49
2022/09/12 02:31:57;;;;;;;;;;;;;;;21.71;50.93;95751.94;10260075;28;3438;-48
2022/09/12 02:36:57;;;;;;;;;;;;;;;21.72;50.78;95755.38;10259938;28;2745;-48
2022/09/12 02:41:58;;;;;;;;;;;;;;;21.70;51.11;95750.34;10246972;28;2847;-48
2022/09/12 02:47:00;;;;;;;;;;;;;;;21.70;51.21;95744.31;10248023;28;3293;-48
2022/09/12 02:52:00;;;;;;;;;;;;;;;21.69;51.00;95755.91;10263355;28;2970;-48
2022/09/12 02:57:01;;;;;;;;;;;;;;;21.69;50.92;95755.91;10245725;28;2950;-48
2022/09/12 03:02:04;;;;;;;;;;;;;;;21.68;50.85;95746.41;10247859;28;2801;-48
2022/09/12 03:07:07;;;;;;;;;;;;;;;21.67;50.93;95748.28;10246675;28;2768;-48
2022/09/12 03:12:17;;;;;;;;;;;;;;;21.67;50.83;95740.38;10243050;28;3321;-48
2022/09/12 03:17:20;;;;;;;;;;;;;;;21.67;50.86;95737.72;10243342;28;3361;-48
2022/09/12 03:22:22;;;;;;;;;;;;;;;21.67;50.77;95736.94;10246274;28;3412;-48
2022/09/12 03:27:35;;;;;;;;;;;;;;;21.66;50.86;95735.34;10246023;28;2690;-48
2022/09/12 03:32:54;;;;;;;;;;;;;;;21.67;50.96;95736.94;10258838;28;2874;-48
2022/09/12 03:38:01;;;;;;;;;;;;;;;21.65;51.01;95744.34;10244283;28;2928;-48
2022/09/12 03:43:02;;;;;;;;;;;;;;;21.64;50.86;95734.84;10247406;28;3334;-48
2022/09/12 03:48:02;;;;;;;;;;;;;;;21.65;50.76;95744.34;10248468;28;2938;-48
2022/09/12 03:53:03;;;;;;;;;;;;;;;21.66;50.66;95745.91;10254544;28;3604;-48
2022/09/12 03:58:03;;;;;;;;;;;;;;;21.64;50.67;95738.28;10243570;28;2859;-49
2022/09/12 04:03:04;;;;;;;;;;;;;;;21.63;50.81;95746.47;10242232;28;2816;-48
2022/09/12 04:08:04;;;;;;;;;;;;;;;21.64;50.62;95748.03;10244733;28;3465;-48
2022/09/12 04:13:04;;;;;;;;;;;;;;;21.62;50.68;95745.69;10243581;28;2863;-48
2022/09/12 04:18:04;;;;;;;;;;;;;;;21.62;50.66;95750.16;10241284;28;3321;-48
2022/09/12 04:23:05;;;;;;;;;;;;;;;21.61;50.75;95751.25;10244006;28;2912;-48
2022/09/12 04:28:05;;;;;;;;;;;;;;;21.62;50.58;95748.31;10247104;28;3336;-48
2022/09/12 04:33:05;;;;;;;;;;;;;;;21.60;50.59;95754.94;10244420;28;2966;-48
2022/09/12 04:38:10;;;;;;;;;;;;;;;21.59;50.61;95743.63;10243921;28;2909;-48
2022/09/12 04:43:10;;;;;;;;;;;;;;;21.61;50.64;95753.88;10244784;28;3305;-49
2022/09/12 04:48:10;;;;;;;;;;;;;;;21.60;50.68;95747.03;10243016;28;3337;-48
2022/09/12 04:53:11;;;;;;;;;;;;;;;21.58;50.59;95749.94;10243704;28;3332;-48
2022/09/12 04:58:11;;;;;;;;;;;;;;;21.61;50.61;95743.34;10241045;28;2823;-48
2022/09/12 05:03:11;;;;;;;;;;;;;;;21.62;50.66;95748.31;10238478;28;2828;-48
2022/09/12 05:08:12;;;;;;;;;;;;;;;21.64;50.67;95748.03;10239592;28;2807;-48
2022/09/12 05:13:12;;;;;;;;;;;;;;;21.63;50.62;95738.56;10247537;28;3424;-48
2022/09/12 05:18:13;;;;;;;;;;;;;;;21.64;51.02;95755.94;10261880;28;2993;-49
2022/09/12 05:23:13;;;;;;;;;;;;;;;21.64;50.73;95756.75;10245731;28;3435;-49
2022/09/12 05:28:13;;;;;;;;;;;;;;;21.64;50.96;95763.88;10243521;28;3321;-42
2022/09/12 05:33:14;;;;;;;;;;;;;;;21.64;51.01;95763.88;10248306;28;3326;-41
2022/09/12 05:38:15;;;;;;;;;;;;;;;21.66;51.09;95764.38;10251318;28;2827;-41
2022/09/12 05:43:16;;;;;;;;;;;;;;;21.66;50.86;95769.66;10246921;28;2841;-41
2022/09/12 05:48:16;;;;;;;;;;;;;;;21.66;50.98;95777.56;10252377;28;3380;-49
2022/09/12 05:53:18;;;;;;;;;;;;;;;21.64;51.04;95772.56;10248036;28;2807;-41
2022/09/12 05:58:19;;;;;;;;;;;;;;;21.64;50.70;95777.84;10249372;28;2767;-43
2022/09/12 06:03:19;;;;;;;;;;;;;;;21.65;50.86;95765.44;10247034;28;3250;-41
2022/09/12 06:08:20;;;;;;;;;;;;;;;21.63;50.68;95767.59;10245570;28;3271;-40
2022/09/12 06:13:20;;;;;;;;;;;;;;;21.64;50.72;95774.41;10246085;28;3317;-40
2022/09/12 06:18:21;;;;;;;;;;;;;;;21.64;50.83;95767.28;10248737;28;3413;-40
2022/09/12 06:23:21;;;;;;;;;;;;;;;21.65;50.85;95771.53;10249890;28;2753;-42
2022/09/12 06:28:21;;;;;;;;;;;;;;;21.65;51.04;95771.53;10250956;28;2836;-41
2022/09/12 06:33:21;;;;;;;;;;;;;;;21.65;50.88;95768.09;10247205;28;2837;-40
2022/09/12 06:38:22;;;;;;;;;;;;;;;21.67;51.07;95768.59;10244002;28;3273;-41
2022/09/12 06:43:22;;;;;;;;;;;;;;;21.67;51.05;95769.38;10246793;28;2858;-40
2022/09/12 06:48:22;;;;;;;;;;;;;;;21.69;50.97;95769.09;10248612;28;2774;-48
2022/09/12 06:53:23;;;;;;;;;;;;;;;21.69;51.33;95774.38;10245077;28;2916;-48
2022/09/12 06:58:24;;;;;;;;;;;;;;;21.70;51.04;95778.59;10248969;28;3332;-48
2022/09/12 07:03:24;;;;;;;;;;;;;;;21.70;51.34;95774.09;10246952;28;3328;-48
2022/09/12 07:08:24;;;;;;;;;;;;;;;21.70;51.43;95775.97;10249163;28;3282;-48
2022/09/12 07:13:25;;;;;;;;;;;;;;;21.70;51.16;95768.81;10240781;28;2865;-48
2022/09/12 07:18:26;;;;;;;;;;;;;;;21.70;51.39;95770.69;10262195;28;2820;-48
2022/09/12 07:23:26;;;;;;;;;;;;;;;21.71;51.51;95774.88;10258691;28;2856;-44
2022/09/12 07:28:27;;;;;;;;;;;;;;;21.71;51.11;95778.31;10246131;28;3409;-48
2022/09/12 07:33:28;;;;;;;;;;;;;;;21.72;51.45;95771.19;10243369;28;2815;-48
2022/09/12 07:38:28;;;;;;;;;;;;;;;21.70;51.55;95774.09;10244857;28;2871;-48
2022/09/12 07:43:28;;;;;;;;;;;;;;;21.72;51.41;95785.16;10242201;28;2702;-48
2022/09/12 07:48:29;;;;;;;;;;;;;;;21.72;51.24;95782.50;10245364;28;2721;-48
2022/09/12 07:53:33;;;;;;;;;;;;;;;21.74;51.63;95783.00;10240050;28;2898;-48
2022/09/12 07:58:33;;;;;;;;;;;;;;;21.75;51.46;95789.88;10245979;28;2883;-48
2022/09/12 08:03:34;;;;;;;;;;;;;;;21.75;51.67;95786.44;10239265;28;2910;-49
2022/09/12 08:08:35;;;;;;;;;;;;;;;21.76;51.45;95788.03;10245568;28;2828;-48
2022/09/12 08:13:35;;;;;;;;;;;;;;;21.77;51.55;95786.97;10242996;28;3013;-48
2022/09/12 08:18:36;;;;;;;;;;;;;;;21.77;51.44;95794.88;10242917;28;2836;-48
2022/09/12 08:23:36;;;;;;;;;;;;;;;21.78;51.35;95789.31;10243430;28;2847;-49
2022/09/12 08:28:36;;;;;;;;;;;;;;;21.78;51.57;95799.88;10244072;28;2878;-48
2022/09/12 08:33:37;;;;;;;;;;;;;;;21.79;51.22;95787.47;10239559;28;3429;-48
2022/09/12 08:38:38;;;;;;;;;;;;;;;21.79;51.05;95788.25;10261996;28;3337;-48
2022/09/12 08:43:56;;;;;;;;;;;;;;;21.78;51.37;95788.53;10242018;28;3301;-47
2022/09/12 08:48:57;;;;;;;;;;;;;;;21.76;51.43;95788.03;10242303;28;3289;-48
2022/09/12 08:53:57;;;;;;;;;;;;;;;21.76;51.91;95783.53;10242955;28;2777;-48
2022/09/12 08:58:58;;;;;;;;;;;;;;;21.76;52.17;95785.41;10244795;28;3298;-48
2022/09/12 09:04:04;;;;;;;;;;;;;;;21.78;51.73;95791.19;10247779;28;2911;-48
2022/09/12 09:09:04;;;;;;;;;;;;;;;21.76;51.66;95777.47;10249095;28;3396;-49
2022/09/12 09:19:31;;;;;;;;;;;;;;;21.77;51.94;95773.75;10249556;28;2902;-49
2022/09/12 09:24:33;;;;;;;;;;;;;;;21.77;52.34;95771.91;10263577;28;3538;-49
2022/09/12 09:29:35;;;;;;;;;;;;;;;21.77;52.38;95771.13;10262188;28;3770;-49
2022/09/12 09:34:37;;;;;;;;;;;;;;;21.77;52.25;95755.28;10250024;28;2769;-41
2022/09/12 09:39:47;;;;;;;;;;;;;;;21.77;52.44;95758.72;10262869;28;2808;-48
2022/09/12 09:44:47;;;;;;;;;;;;;;;21.78;52.58;95757.63;10248260;28;2881;-49
2022/09/12 09:49:48;;;;;;;;;;;;;;;21.78;52.57;95764.78;10262207;28;3522;-48
2022/09/12 09:54:56;;;;;;;;;;;;;;;21.79;52.71;95761.06;10249513;28;3357;-48
2022/09/12 09:59:56;;;;;;;;;;;;;;;21.81;52.82;95756.31;10262555;28;2784;-48
2022/09/12 10:04:57;;;;;;;;;;;;;;;21.81;52.41;95753.66;10248017;28;3294;-48
2022/09/12 10:10:24;;;;;;;;;;;;;;;21.81;52.98;95758.94;10261939;28;3390;-49
2022/09/12 10:15:25;;;;;;;;;;;;;;;21.81;53.50;95754.50;10245561;28;3254;-48
2022/09/12 10:20:25;;;;;;;;;;;;;;;21.85;53.89;95746.78;10249067;28;3465;-48
2022/09/12 10:25:26;;;;;;;;;;;;;;;21.93;54.24;95740.13;10246739;28;3317;-44
2022/09/12 10:30:27;;;;;;;;;;;;;;;21.92;54.36;95739.31;10250117;28;3282;-41
2022/09/12 10:35:29;;;;;;;;;;;;;;;21.95;54.44;95736.09;10263205;28;2697;-43
2022/09/12 10:40:31;;;;;;;;;;;;;;;21.95;54.15;95738.00;10264143;28;2896;-44
2022/09/12 10:45:34;;;;;;;;;;;;;;;21.93;54.07;95734.84;10262505;28;3250;-46
2022/09/12 10:50:40;;;;;;;;;;;;;;;21.94;53.77;95731.91;10245683;28;2875;-45
2022/09/12 10:55:42;;;;;;;;;;;;;;;21.93;54.12;95734.84;10244372;28;3446;-43
2022/09/12 11:00:45;;;;;;;;;;;;;;;21.93;54.01;95732.22;10265552;28;3308;-43
2022/09/12 11:05:52;;;;;;;;;;;;;;;21.94;53.70;95721.34;10260701;28;3300;-42
2022/09/12 11:11:22;;;;;;;;;;;;;;;21.93;53.97;95719.78;10247348;28;2826;-45
2022/09/12 11:16:28;;;;;;;;;;;;;;;21.93;54.09;95719.78;10208759;28;3359;-44
2022/09/12 11:21:31;;;;;;;;;;;;;;;21.96;53.96;95721.84;10244907;28;2768;-43
2022/09/12 11:26:37;;;;;;;;;;;;;;;21.98;53.86;95721.56;10243703;28;2803;-43
2022/09/12 11:31:56;;;;;;;;;;;;;;;21.96;53.77;95719.22;10245455;28;2709;-45
2022/09/12 11:37:05;;;;;;;;;;;;;;;21.95;54.00;95696.53;10245979;28;2907;-43
2022/09/12 11:42:08;;;;;;;;;;;;;;;21.97;54.05;95704.94;10257115;28;3389;-43
2022/09/12 11:47:12;;;;;;;;;;;;;;;21.98;53.68;95708.38;10240214;28;2947;-43
2022/09/12 11:52:13;;;;;;;;;;;;;;;21.99;53.99;95702.03;10256734;28;2886;-42
2022/09/12 11:57:15;;;;;;;;;;;;;;;21.99;53.87;95702.81;10241957;28;2874;-45
2022/09/12 12:02:18;;;;;;;;;;;;;;;22.03;53.60;95703.03;10249372;28;2862;-45
2022/09/12 12:07:19;;;;;;;;;;;;;;;22.03;53.77;95701.16;10253228;28;2884;-43
2022/09/12 12:12:21;;;;;;;;;;;;;;;22.05;53.56;95693.75;10242552;28;2721;-46
2022/09/12 12:17:22;;;;;;;;;;;;;;;22.07;53.68;95694.25;10240290;28;2890;-42
2022/09/12 12:22:22;;;;;;;;;;;;;;;22.10;53.37;95693.69;10244985;28;3482;-43
2022/09/12 12:27:44;;;;;;;;;;;;;;;22.11;53.11;95695.28;10258857;28;3440;-45
2022/09/12 12:32:45;;;;;;;;;;;;;;;22.10;52.91;95688.41;10246245;28;3529;-44
2022/09/12 12:37:49;;;;;;;;;;;;;;;22.08;52.84;95685.28;10246237;28;2807;-43
2022/09/12 12:42:55;;;;;;;;;;;;;;;22.12;52.68;95680.22;10265909;28;2726;-45
2022/09/12 12:47:59;;;;;;;;;;;;;;;22.09;52.52;95680.78;10249556;28;3434;-44
2022/09/12 12:52:59;;;;;;;;;;;;;;;22.09;52.30;95664.94;10263808;28;2899;-45
2022/09/12 12:58:02;;;;;;;;;;;;;;;22.11;52.32;95668.09;10251783;28;2839;-43
2022/09/12 13:03:03;;;;;;;;;;;;;;;22.15;52.11;95664.59;10265457;28;2753;-44
2022/09/12 13:08:06;;;;;;;;;;;;;;;22.14;51.90;95649.81;10262284;28;3326;-46
2022/09/12 13:13:07;;;;;;;;;;;;;;;22.12;51.82;95659.88;10264913;28;2717;-45
2022/09/12 13:18:15;;;;;;;;;;;;;;;22.12;51.67;95653.81;10248314;28;3345;-43
2022/09/12 13:23:22;;;;;;;;;;;;;;;22.08;51.58;95640.41;10255544;28;2811;-45
2022/09/12 13:28:22;;;;;;;;;;;;;;;22.10;51.27;95625.06;10258188;28;2916;-46
2022/09/12 13:33:23;;;;;;;;;;;;;;;22.10;51.33;95625.06;10248256;28;2918;-43
2022/09/12 13:38:32;;;;;;;;;;;;;;;22.08;50.93;95624.56;10266649;28;2872;-44
2022/09/12 13:43:37;;;;;;;;;;;;;;;22.06;51.16;95629.34;10245499;28;2739;-44
2022/09/12 13:48:37;;;;;;;;;;;;;;;22.08;50.89;95621.13;10270438;28;2859;-46
2022/09/12 13:53:42;;;;;;;;;;;;;;;22.07;50.71;95622.97;10260795;28;2882;-45
2022/09/12 13:58:53;;;;;;;;;;;;;;;22.08;50.86;95614.00;10268731;28;2705;-44
2022/09/12 14:09:20;;;;;;;;;;;;;;;22.05;50.57;95604.00;10257919;28;2843;-45
2022/09/12 14:14:28;;;;;;;;;;;;;;;22.06;50.12;95597.66;10265131;28;2855;-43
2022/09/12 14:19:28;;;;;;;;;;;;;;;22.05;50.27;95590.81;10265847;28;3470;-45
2022/09/12 14:24:29;;;;;;;;;;;;;;;22.03;50.29;95592.19;10247255;28;2762;-43
2022/09/12 14:29:30;;;;;;;;;;;;;;;22.01;50.18;95587.16;10261761;28;2858;-46
2022/09/12 14:34:30;;;;;;;;;;;;;;;22.01;50.03;95589.81;10246300;28;3333;-45
2022/09/12 14:39:32;;;;;;;;;;;;;;;22.02;50.31;95575.56;10245340;28;2834;-46
2022/09/12 14:44:33;;;;;;;;;;;;;;;22.02;50.30;95569.47;10246373;28;2880;-44
2022/09/12 14:49:33;;;;;;;;;;;;;;;22.01;50.21;95573.97;10242391;28;3360;-43
2022/09/12 14:54:36;;;;;;;;;;;;;;;22.02;50.21;95567.63;10257598;28;3297;-47
2022/09/12 14:59:38;;;;;;;;;;;;;;;22.02;50.59;95569.47;10246755;28;2916;-43
2022/09/12 15:04:41;;;;;;;;;;;;;;;21.99;50.28;95578.75;10245199;28;3306;-43
2022/09/12 15:09:42;;;;;;;;;;;;;;;22.00;50.45;95574.25;10241882;28;2929;-45
2022/09/12 15:14:42;;;;;;;;;;;;;;;22.01;50.53;95563.41;10241126;28;2851;-44
2022/09/12 15:19:42;;;;;;;;;;;;;;;22.01;50.34;95575.84;10245918;28;2883;-45
2022/09/12 15:24:45;;;;;;;;;;;;;;;22.02;50.58;95570.28;10241538;28;2747;-43
2022/09/12 15:29:46;;;;;;;;;;;;;;;21.99;50.76;95565.56;10239109;28;2768;-43
2022/09/12 15:34:46;;;;;;;;;;;;;;;22.00;50.59;95561.88;10243708;28;2750;-45
2022/09/12 15:39:47;;;;;;;;;;;;;;;21.99;50.81;95560.28;10244282;28;3345;-44
2022/09/12 15:44:47;;;;;;;;;;;;;;;21.99;50.81;95557.63;10242010;28;2777;-47
2022/09/12 15:49:47;;;;;;;;;;;;;;;22.00;50.53;95547.88;10243876;28;3378;-45
2022/09/12 15:54:50;;;;;;;;;;;;;;;21.99;50.79;95544.44;10244321;28;3277;-42
2022/09/12 15:59:50;;;;;;;;;;;;;;;21.99;50.69;95544.44;10241725;28;3301;-45
2022/09/12 16:04:53;;;;;;;;;;;;;;;21.99;50.84;95544.44;10243218;28;2795;-43
2022/09/12 16:09:53;;;;;;;;;;;;;;;21.99;50.89;95547.09;10243880;28;3303;-43
2022/09/12 16:14:54;;;;;;;;;;;;;;;21.98;50.97;95550.81;10256422;28;2741;-46
2022/09/12 16:19:54;;;;;;;;;;;;;;;21.96;51.00;95547.66;10243080;28;2855;-43
2022/09/12 16:24:54;;;;;;;;;;;;;;;21.96;50.79;95547.66;10242078;28;2954;-43
2022/09/12 16:29:55;;;;;;;;;;;;;;;21.95;51.03;95540.03;10243293;28;2956;-45
2022/09/12 16:34:55;;;;;;;;;;;;;;;21.96;50.91;95534.47;10253827;28;2867;-47
2022/09/12 16:39:55;;;;;;;;;;;;;;;21.97;50.92;95524.72;10241091;28;2768;-45
2022/09/12 16:44:55;;;;;;;;;;;;;;;21.94;50.73;95518.16;10257173;28;2785;-45
2022/09/12 16:49:56;;;;;;;;;;;;;;;21.96;51.06;95509.94;10241020;28;2741;-43
2022/09/12 16:54:56;;;;;;;;;;;;;;;21.95;51.37;95509.13;10244385;28;2851;-42
2022/09/12 16:59:56;;;;;;;;;;;;;;;21.96;51.46;95512.56;10239831;28;2859;-41
2022/09/12 17:05:01;;;;;;;;;;;;;;;21.97;51.70;95514.91;10240286;28;2849;-47
2022/09/12 17:10:02;;;;;;;;;;;;;;;22.00;51.81;95514.34;10238873;28;3297;-42
2022/09/12 17:15:02;;;;;;;;;;;;;;;22.19;51.47;95520.38;10245306;28;2961;-42
2022/09/12 17:20:03;;;;;;;;;;;;;;;22.33;51.02;95525.69;10243434;28;2913;-44
2022/09/12 17:25:03;;;;;;;;;;;;;;;22.50;51.71;95524.06;10243097;28;2579;-42
2022/09/12 17:30:04;;;;;;;;;;;;;;;22.49;52.27;95530.44;10244359;28;2531;-44
2022/09/12 17:35:06;;;;;;;;;;;;;;;22.46;53.02;95528.34;10250677;28;2619;-44
2022/09/12 17:40:06;;;;;;;;;;;;;;;22.36;53.02;95531.19;10244537;28;2527;-44
2022/09/12 17:45:07;;;;;;;;;;;;;;;22.32;54.04;95530.19;10260839;28;2538;-48
2022/09/12 17:50:08;;;;;;;;;;;;;;;22.28;53.92;95531.84;10250648;28;2737;-43
2022/09/12 17:55:08;;;;;;;;;;;;;;;22.26;54.19;95527.91;10262266;28;3103;-44
2022/09/12 18:00:09;;;;;;;;;;;;;;;22.23;54.71;95529.31;10242508;28;2610;-43
2022/09/12 18:05:09;;;;;;;;;;;;;;;22.20;55.21;95535.16;10248367;28;3034;-41
2022/09/12 18:10:10;;;;;;;;;;;;;;;22.18;55.40;95534.66;10243498;28;3074;-43
2022/09/12 18:15:11;;;;;;;;;;;;;;;22.16;55.31;95539.44;10245541;28;2586;-42
2022/09/12 18:20:11;;;;;;;;;;;;;;;22.16;55.68;95533.38;10250370;28;2760;-42
2022/09/12 18:25:11;;;;;;;;;;;;;;;22.15;55.51;95537.88;10249135;28;2598;-42
2022/09/12 18:30:12;;;;;;;;;;;;;;;22.16;55.77;95531.50;10245335;28;2717;-42
2022/09/12 18:35:13;;;;;;;;;;;;;;;22.18;55.23;95536.50;10250665;28;3032;-45
2022/09/12 18:40:14;;;;;;;;;;;;;;;22.16;55.72;95531.50;10245395;28;2698;-42
2022/09/12 18:45:22;;;;;;;;;;;;;;;22.17;55.72;95541.00;10242204;28;2657;-43
2022/09/12 18:50:23;;;;;;;;;;;;;;;22.12;55.71;95533.16;10244474;28;2666;-44
2022/09/12 18:55:23;;;;;;;;;;;;;;;22.07;55.52;95530.59;10241620;28;2590;-44
2022/09/12 19:00:23;;;;;;;;;;;;;;;22.03;55.14;95519.03;10245473;28;2552;-41
2022/09/12 19:05:24;;;;;;;;;;;;;;;22.02;55.26;95521.97;10244090;28;2539;-43
2022/09/12 19:10:25;;;;;;;;;;;;;;;21.96;55.47;95523.91;10242385;28;3339;-42
2022/09/12 19:15:25;;;;;;;;;;;;;;;21.93;54.36;95516.56;10245361;28;2760;-42
2022/09/12 19:20:25;;;;;;;;;;;;;;;21.90;54.91;95519.78;10240805;28;2511;-43
2022/09/12 19:25:25;;;;;;;;;;;;;;;21.95;56.14;95532.88;10245449;28;2728;-43
2022/09/12 19:30:26;;;;;;;;;;;;;;;21.96;56.06;95525.75;10243000;28;3602;-43
2022/09/12 19:35:26;;;;;;;;;;;;;;;21.96;55.84;95533.69;10248666;28;2793;-43
2022/09/12 19:40:26;;;;;;;;;;;;;;;21.94;56.03;95536.63;10241094;28;3250;-42
2022/09/12 19:45:27;;;;;;;;;;;;;;;21.94;55.95;95528.69;10243009;28;3053;-43
2022/09/12 19:50:28;;;;;;;;;;;;;;;21.94;56.39;95526.06;10259782;28;2900;-41
2022/09/12 19:55:28;;;;;;;;;;;;;;;21.93;57.48;95521.84;10256463;28;3164;-41
2022/09/12 20:00:28;;;;;;;;;;;;;;;21.93;57.51;95521.84;10243478;28;3001;-42
2022/09/12 20:05:30;;;;;;;;;;;;;;;21.93;57.77;95531.63;10244181;28;3113;-41
2022/09/12 20:10:30;;;;;;;;;;;;;;;21.92;58.18;95533.47;10245170;28;3198;-48
2022/09/12 20:15:31;;;;;;;;;;;;;;;21.93;57.27;95539.56;10243792;28;3093;-48
2022/09/12 20:20:31;;;;;;;;;;;;;;;21.92;57.74;95544.03;10245149;28;2716;-48
2022/09/12 20:25:32;;;;;;;;;;;;;;;21.92;58.28;95537.97;10251761;28;2555;-48
2022/09/12 20:30:32;;;;;;;;;;;;;;;21.92;58.51;95532.69;10237931;28;2651;-48
2022/09/12 20:35:32;;;;;;;;;;;;;;;21.91;58.51;95531.13;10244363;28;2567;-48
2022/09/12 20:40:33;;;;;;;;;;;;;;;21.90;58.45;95527.72;10240513;28;2696;-48
2022/09/12 20:45:33;;;;;;;;;;;;;;;21.90;58.05;95525.06;10237486;28;2708;-48
2022/09/12 20:50:33;;;;;;;;;;;;;;;21.90;58.19;95517.16;10245185;28;3143;-48
2022/09/12 20:55:33;;;;;;;;;;;;;;;21.89;58.03;95512.94;10246360;28;2547;-48
2022/09/12 21:00:34;;;;;;;;;;;;;;;21.88;58.77;95511.38;10246229;28;3057;-44
2022/09/12 21:05:40;;;;;;;;;;;;;;;21.88;58.35;95521.94;10247546;28;2594;-44
2022/09/12 21:10:43;;;;;;;;;;;;;;;21.87;58.17;95509.78;10264000;28;2702;-42
2022/09/12 21:15:43;;;;;;;;;;;;;;;21.86;58.03;95522.19;10251984;28;3010;-42
2022/09/12 21:20:49;;;;;;;;;;;;;;;21.88;58.32;95514.00;10253907;28;2734;-42
2022/09/12 21:25:50;;;;;;;;;;;;;;;21.87;58.29;95512.44;10246217;28;2776;-43
2022/09/12 21:30:50;;;;;;;;;;;;;;;21.87;58.19;95509.78;10262366;28;2879;-41
2022/09/12 21:35:50;;;;;;;;;;;;;;;21.86;58.13;95514.28;10246478;28;2692;-42
2022/09/12 21:40:50;;;;;;;;;;;;;;;21.85;58.28;95511.94;10251381;28;2590;-41
2022/09/12 21:45:55;;;;;;;;;;;;;;;21.85;58.05;95501.38;10246044;28;3054;-41
2022/09/12 21:50:55;;;;;;;;;;;;;;;21.85;58.45;95506.66;10252175;28;2535;-42
2022/09/12 21:56:00;;;;;;;;;;;;;;;21.84;58.41;95508.50;10248574;28;3089;-41
2022/09/12 22:01:00;;;;;;;;;;;;;;;21.83;58.20;95522.00;10248386;28;3044;-42
2022/09/12 22:06:01;;;;;;;;;;;;;;;21.84;58.38;95508.50;10247628;28;3146;-41
2022/09/12 22:11:02;;;;;;;;;;;;;;;21.84;57.76;95523.56;10248102;28;3157;-41
2022/09/12 22:16:02;;;;;;;;;;;;;;;21.83;57.90;95520.16;10264894;28;2555;-41
2022/09/12 22:21:05;;;;;;;;;;;;;;;21.83;57.75;95514.88;10252223;28;2492;-44
2022/09/12 22:26:05;;;;;;;;;;;;;;;21.83;58.12;95514.88;10244369;28;3043;-41
2022/09/12 22:31:08;;;;;;;;;;;;;;;21.83;57.58;95503.53;10250454;28;2547;-41
2022/09/12 22:36:08;;;;;;;;;;;;;;;21.82;57.96;95486.91;10246770;28;2726;-41
2022/09/12 22:41:09;;;;;;;;;;;;;;;21.82;57.93;95486.91;10248900;28;2710;-41
2022/09/12 22:46:11;;;;;;;;;;;;;;;21.82;57.34;95483.50;10249972;28;2823;-41
2022/09/12 22:51:11;;;;;;;;;;;;;;;21.81;57.67;95484.53;10250226;28;2705;-41
2022/09/12 22:56:11;;;;;;;;;;;;;;;21.81;57.28;95482.72;10244641;28;2590;-41
2022/09/12 23:01:12;;;;;;;;;;;;;;;21.82;57.07;95478.22;10246573;28;2806;-42
2022/09/12 23:06:22;;;;;;;;;;;;;;;21.82;57.34;95476.34;10241536;28;2805;-43
2022/09/12 23:11:23;;;;;;;;;;;;;;;21.80;57.20;95478.47;10241712;28;2784;-40
2022/09/12 23:16:24;;;;;;;;;;;;;;;21.80;57.01;95473.19;10245393;28;2623;-42
2022/09/12 23:21:24;;;;;;;;;;;;;;;21.81;57.17;95466.06;10238423;28;3253;-41
2022/09/12 23:26:26;;;;;;;;;;;;;;;21.80;57.07;95467.16;10248259;28;2993;-41
2022/09/12 23:31:31;;;;;;;;;;;;;;;21.80;56.79;95470.53;10242301;28;2775;-40
2022/09/12 23:36:31;;;;;;;;;;;;;;;21.80;56.77;95472.41;10251219;28;2632;-49
2022/09/12 23:41:32;;;;;;;;;;;;;;;21.80;56.88;95462.63;10247912;28;2787;-49
2022/09/12 23:46:32;;;;;;;;;;;;;;;21.80;56.75;95464.50;10247267;28;2644;-49
2022/09/12 23:51:32;;;;;;;;;;;;;;;21.79;56.37;95455.00;10249593;28;2571;-49
2022/09/12 23:56:33;;;;;;;;;;;;;;;21.79;56.43;95441.81;10250186;28;2654;-48
